createdAt,value
2022-10-22T00:01:45.665Z,99212.38
2022-10-22T00:04:13.992Z,99207.97
2022-10-22T00:06:45.089Z,99215.16
2022-10-22T00:09:13.824Z,99213.53
2022-10-22T00:11:43.397Z,99201.31
2022-10-22T00:14:13.037Z,99206.84
2022-10-22T00:16:41.333Z,99203.75
2022-10-22T00:19:11.178Z,99204.91
2022-10-22T00:21:39.505Z,99199.38
2022-10-22T00:24:09.666Z,99196.59
2022-10-22T00:26:39.761Z,99191.38
2022-10-22T00:29:08.259Z,99199.97
2022-10-22T00:31:36.974Z,99198.63
2022-10-22T00:34:05.363Z,99188.16
2022-10-22T00:36:33.706Z,99176.84
2022-10-22T00:39:02.084Z,99169.44
2022-10-22T00:41:31.799Z,99173.63
2022-10-22T00:44:03.511Z,99181.75
2022-10-22T00:46:32.186Z,99177.09
2022-10-22T00:49:05.407Z,99178.78
2022-10-22T00:51:36.296Z,99169.47
2022-10-22T00:54:08.027Z,99166.25
2022-10-22T00:56:38.660Z,99166.84
2022-10-22T01:01:40.840Z,99167.00
2022-10-22T01:04:09.354Z,99164.28
2022-10-22T01:06:37.731Z,99168.47
2022-10-22T01:09:19.941Z,99170.47
2022-10-22T01:11:58.863Z,99173.28
2022-10-22T01:14:37.200Z,99170.81
2022-10-22T01:17:11.423Z,99186.59
2022-10-22T01:20:00.401Z,99197.94
2022-10-22T01:22:35.343Z,99178.31
2022-10-22T01:25:13.345Z,99167.25
2022-10-22T01:27:53.953Z,99156.97
2022-10-22T01:30:25.159Z,99155.88
2022-10-22T01:32:57.254Z,99155.56
2022-10-22T01:35:30.575Z,99154.47
2022-10-22T01:38:04.155Z,99148.63
2022-10-22T01:40:33.392Z,99148.34
2022-10-22T01:43:04.718Z,99143.09
2022-10-22T01:45:38.689Z,99144.50
2022-10-22T01:48:25.904Z,99136.00
2022-10-22T01:51:23.449Z,99134.13
2022-10-22T01:54:01.870Z,99115.38
2022-10-22T01:56:49.872Z,99115.44
2022-10-22T01:59:31.116Z,99125.13
2022-10-22T02:02:11.053Z,99121.06
2022-10-22T02:04:47.975Z,99119.69
2022-10-22T02:07:22.305Z,99104.22
2022-10-22T02:09:52.878Z,99093.75
2022-10-22T02:12:23.190Z,99109.53
2022-10-22T02:14:53.096Z,99116.16
2022-10-22T02:17:25.358Z,99128.88
2022-10-22T02:19:59.013Z,99124.47
2022-10-22T02:22:28.862Z,99120.59
2022-10-22T02:24:57.752Z,99126.13
2022-10-22T02:27:31.917Z,99119.44
2022-10-22T02:30:06.866Z,99125.81
2022-10-22T02:32:43.065Z,99140.97
2022-10-22T02:35:18.061Z,99128.25
2022-10-22T02:37:46.819Z,99114.16
2022-10-22T02:40:15.540Z,99107.81
2022-10-22T02:42:44.387Z,99110.88
2022-10-22T02:45:12.771Z,99106.47
2022-10-22T02:47:42.757Z,99108.69
2022-10-22T02:50:11.409Z,99105.69
2022-10-22T02:52:40.527Z,99110.69
2022-10-22T02:55:09.871Z,99091.41
2022-10-22T02:57:38.811Z,99105.00
2022-10-22T03:00:16.909Z,99099.84
2022-10-22T03:02:46.784Z,99102.09
2022-10-22T03:05:15.267Z,99110.13
2022-10-22T03:07:43.729Z,99103.25
2022-10-22T03:10:12.314Z,99101.91
2022-10-22T03:12:40.704Z,99100.00
2022-10-22T03:15:09.792Z,99105.84
2022-10-22T03:17:38.395Z,99110.53
2022-10-22T03:20:10.093Z,99107.78
2022-10-22T03:22:41.991Z,99107.50
2022-10-22T03:25:15.372Z,99108.56
2022-10-22T03:27:44.206Z,99100.22
2022-10-22T03:30:13.502Z,99095.72
2022-10-22T03:32:41.871Z,99084.09
2022-10-22T03:35:11.730Z,99093.19
2022-10-22T03:37:41.512Z,99086.03
2022-10-22T03:40:12.835Z,99095.44
2022-10-22T03:42:42.261Z,99096.03
2022-10-22T03:45:12.218Z,99107.66
2022-10-22T03:47:40.885Z,99088.91
2022-10-22T03:50:11.998Z,99074.38
2022-10-22T03:52:41.950Z,99063.59
2022-10-22T03:55:11.449Z,99070.00
2022-10-22T03:57:40.204Z,99079.69
2022-10-22T04:00:10.938Z,99088.06
2022-10-22T04:02:39.310Z,99093.03
2022-10-22T04:05:09.288Z,99091.66
2022-10-22T04:07:39.351Z,99092.28
2022-10-22T04:10:09.541Z,99092.84
2022-10-22T04:12:37.957Z,99112.47
2022-10-22T04:15:07.710Z,99110.28
2022-10-22T04:17:37.575Z,99119.72
2022-10-22T04:20:08.133Z,99112.00
2022-10-22T04:22:38.280Z,99113.06
2022-10-22T04:25:08.166Z,99108.69
2022-10-22T04:27:37.237Z,99103.16
2022-10-22T04:30:07.706Z,99096.81
2022-10-22T04:32:36.185Z,99099.03
2022-10-22T04:35:05.415Z,99095.66
2022-10-22T04:37:34.235Z,99097.53
2022-10-22T04:40:04.280Z,99098.63
2022-10-22T04:42:33.290Z,99102.97
2022-10-22T04:45:01.613Z,99101.25
2022-10-22T04:47:30.022Z,99097.63
2022-10-22T04:49:58.356Z,99099.81
2022-10-22T04:52:26.731Z,99109.97
2022-10-22T04:54:55.053Z,99111.84
2022-10-22T04:57:24.881Z,99113.72
2022-10-22T04:59:53.739Z,99104.84
2022-10-22T05:02:22.075Z,99103.13
2022-10-22T05:04:50.408Z,99114.72
2022-10-22T05:07:19.608Z,99108.59
2022-10-22T05:09:48.051Z,99108.00
2022-10-22T05:12:16.401Z,99109.34
2022-10-22T05:14:46.073Z,99114.28
2022-10-22T05:17:14.544Z,99100.16
2022-10-22T05:19:42.895Z,99094.06
2022-10-22T05:22:11.229Z,99100.09
2022-10-22T05:24:39.780Z,99107.28
2022-10-22T05:27:08.181Z,99106.47
2022-10-22T05:29:37.364Z,99118.34
2022-10-22T05:32:07.165Z,99118.34
2022-10-22T05:34:36.239Z,99123.25
2022-10-22T05:37:04.884Z,99134.56
2022-10-22T05:39:36.838Z,99133.44
2022-10-22T05:42:05.741Z,99125.69
2022-10-22T05:44:34.187Z,99125.97
2022-10-22T05:47:02.497Z,99129.56
2022-10-22T05:49:32.198Z,99130.66
2022-10-22T05:52:00.559Z,99131.75
2022-10-22T05:54:28.921Z,99120.38
2022-10-22T05:56:57.284Z,99109.25
2022-10-22T05:59:25.618Z,99116.66
2022-10-22T06:01:54.035Z,99114.94
2022-10-22T06:04:22.446Z,99118.72
2022-10-22T06:06:54.280Z,99125.34
2022-10-22T06:09:28.422Z,99130.28
2022-10-22T06:11:58.168Z,99137.69
2022-10-22T06:14:28.174Z,99143.75
2022-10-22T06:16:56.995Z,99143.97
2022-10-22T06:19:26.874Z,99146.16
2022-10-22T06:21:56.588Z,99160.78
2022-10-22T06:24:24.919Z,99153.31
2022-10-22T06:26:53.908Z,99150.47
2022-10-22T06:29:22.330Z,99145.19
2022-10-22T06:31:50.802Z,99158.91
2022-10-22T06:34:19.893Z,99159.97
2022-10-22T06:36:48.748Z,99173.72
2022-10-22T06:39:19.382Z,99158.47
2022-10-22T06:41:47.727Z,99163.41
2022-10-22T06:44:17.960Z,99162.81
2022-10-22T06:46:46.669Z,99162.44
2022-10-22T06:49:17.201Z,99162.88
2022-10-22T06:51:45.811Z,99168.75
2022-10-22T06:54:14.216Z,99183.75
2022-10-22T06:56:44.119Z,99195.19
2022-10-22T06:59:12.432Z,99193.59
2022-10-22T07:01:42.347Z,99205.03
2022-10-22T07:04:12.469Z,99216.03
2022-10-22T07:06:40.938Z,99214.28
2022-10-22T07:09:09.378Z,99209.47
2022-10-22T07:11:46.198Z,99222.94
2022-10-22T07:14:15.920Z,99235.16
2022-10-22T07:16:45.767Z,99244.31
2022-10-22T07:19:15.252Z,99256.56
2022-10-22T07:21:43.707Z,99260.19
2022-10-22T07:24:12.117Z,99257.19
2022-10-22T07:26:40.505Z,99269.53
2022-10-22T07:29:10.474Z,99286.41
2022-10-22T07:31:38.879Z,99280.44
2022-10-22T07:34:07.323Z,99278.16
2022-10-22T07:36:35.825Z,99280.44
2022-10-22T07:39:05.003Z,99279.78
2022-10-22T07:41:33.781Z,99273.63
2022-10-22T07:44:02.153Z,99268.81
2022-10-22T07:46:31.996Z,99277.00
2022-10-22T07:49:00.404Z,99292.72
2022-10-22T07:51:28.873Z,99287.56
2022-10-22T07:53:57.205Z,99302.00
2022-10-22T07:56:25.650Z,99313.19
2022-10-22T07:58:54.031Z,99315.25
2022-10-22T08:01:22.442Z,99295.91
2022-10-22T08:03:52.343Z,99288.53
2022-10-22T08:06:20.762Z,99291.63
2022-10-22T08:08:49.515Z,99291.94
2022-10-22T08:11:17.942Z,99291.22
2022-10-22T08:13:46.283Z,99280.44
2022-10-22T08:16:15.766Z,99270.97
2022-10-22T08:18:44.331Z,99262.53
2022-10-22T08:21:14.668Z,99255.72
2022-10-22T08:23:43.019Z,99267.72
2022-10-22T08:26:11.792Z,99274.22
2022-10-22T08:28:40.293Z,99287.97
2022-10-22T08:31:09.529Z,99271.31
2022-10-22T08:33:38.927Z,99271.81
2022-10-22T08:36:08.789Z,99271.03
2022-10-22T08:38:38.779Z,99269.38
2022-10-22T08:41:15.425Z,99265.25
2022-10-22T08:44:36.854Z,99268.78
2022-10-22T08:47:28.208Z,99277.53
2022-10-22T08:49:57.202Z,99282.38
2022-10-22T08:52:25.871Z,99278.88
2022-10-22T08:54:58.307Z,99287.94
2022-10-22T08:57:52.499Z,99283.22
2022-10-22T09:00:30.131Z,99277.88
2022-10-22T09:03:20.556Z,99288.09
2022-10-22T09:05:57.892Z,99285.63
2022-10-22T09:08:26.495Z,99281.38
2022-10-22T09:11:02.239Z,99282.16
2022-10-22T09:13:30.997Z,99277.63
2022-10-22T09:16:03.818Z,99261.72
2022-10-22T09:18:43.546Z,99260.97
2022-10-22T09:21:24.249Z,99257.16
2022-10-22T09:24:07.880Z,99263.00
2022-10-22T09:26:41.454Z,99268.75
2022-10-22T09:29:20.380Z,99269.28
2022-10-22T09:31:48.872Z,99270.03
2022-10-22T09:34:22.166Z,99271.56
2022-10-22T09:36:59.894Z,99280.63
2022-10-22T09:39:33.558Z,99277.44
2022-10-22T09:42:03.377Z,99280.16
2022-10-22T09:44:35.623Z,99275.63
2022-10-22T09:47:07.112Z,99275.22
2022-10-22T09:49:37.469Z,99287.88
2022-10-22T09:52:28.595Z,99300.00
2022-10-22T09:54:57.424Z,99297.84
2022-10-22T09:57:29.788Z,99294.66
2022-10-22T09:59:58.154Z,99286.78
2022-10-22T10:02:38.168Z,99292.25
2022-10-22T10:05:10.121Z,99289.88
2022-10-22T10:07:39.222Z,99287.53
2022-10-22T10:10:21.141Z,99286.09
2022-10-22T10:12:58.466Z,99296.25
2022-10-22T10:15:36.618Z,99299.22
2022-10-22T10:18:18.922Z,99294.41
2022-10-22T10:21:00.774Z,99291.81
2022-10-22T10:23:37.459Z,99296.97
2022-10-22T10:26:14.254Z,99298.16
2022-10-22T10:29:02.757Z,99299.41
2022-10-22T10:31:44.765Z,99298.53
2022-10-22T10:34:29.650Z,99294.97
2022-10-22T10:37:13.036Z,99296.34
2022-10-22T10:40:02.865Z,99300.34
2022-10-22T10:42:42.673Z,99292.75
2022-10-22T10:45:21.535Z,99291.69
2022-10-22T10:48:13.516Z,99281.16
2022-10-22T10:50:57.603Z,99287.63
2022-10-22T10:53:44.884Z,99295.41
2022-10-22T10:56:39.173Z,99279.81
2022-10-22T10:59:22.952Z,99278.38
2022-10-22T11:02:15.568Z,99284.97
2022-10-22T11:05:23.653Z,99275.38
2022-10-22T11:07:57.848Z,99269.84
2022-10-22T11:10:32.992Z,99278.38
2022-10-22T11:13:12.821Z,99268.28
2022-10-22T11:15:42.534Z,99256.81
2022-10-22T11:18:23.549Z,99273.09
2022-10-22T11:21:12.102Z,99261.44
2022-10-22T11:23:45.987Z,99245.53
2022-10-22T11:26:27.330Z,99253.25
2022-10-22T11:28:59.119Z,99256.00
2022-10-22T11:31:28.752Z,99254.06
2022-10-22T11:34:28.460Z,99256.97
2022-10-22T11:36:56.809Z,99257.09
2022-10-22T11:39:37.894Z,99261.69
2022-10-22T11:42:10.700Z,99257.25
2022-10-22T11:45:02.192Z,99258.72
2022-10-22T11:47:34.962Z,99255.59
2022-10-22T11:50:25.383Z,99253.47
2022-10-22T11:53:04.610Z,99257.06
2022-10-22T11:55:45.973Z,99249.88
2022-10-22T11:58:35.176Z,99252.34
2022-10-22T12:01:29.820Z,99247.75
2022-10-22T12:04:22.592Z,99250.91
2022-10-22T12:07:01.947Z,99252.53
2022-10-22T12:09:34.441Z,99250.56
2022-10-22T12:12:15.645Z,99245.81
2022-10-22T12:14:57.412Z,99246.28
2022-10-22T12:17:28.621Z,99245.59
2022-10-22T12:20:02.934Z,99246.44
2022-10-22T12:22:37.240Z,99252.19
2022-10-22T12:25:20.092Z,99247.06
2022-10-22T12:27:53.479Z,99250.00
2022-10-22T12:30:24.630Z,99248.53
2022-10-22T12:32:54.960Z,99251.47
2022-10-22T12:35:26.985Z,99261.97
2022-10-22T12:37:59.995Z,99246.03
2022-10-22T12:40:30.766Z,99244.56
2022-10-22T12:43:01.266Z,99245.03
2022-10-22T12:45:31.824Z,99243.06
2022-10-22T12:48:03.195Z,99241.41
2022-10-22T12:50:38.491Z,99244.41
2022-10-22T12:53:14.325Z,99239.16
2022-10-22T12:55:42.996Z,99243.75
2022-10-22T12:58:20.226Z,99243.13
2022-10-22T13:00:49.878Z,99251.69
2022-10-22T13:03:30.752Z,99246.28
2022-10-22T13:06:14.784Z,99245.97
2022-10-22T13:08:44.659Z,99243.69
2022-10-22T13:11:13.593Z,99243.03
2022-10-22T13:13:47.075Z,99238.31
2022-10-22T13:16:24.441Z,99239.59
2022-10-22T13:18:55.270Z,99240.28
2022-10-22T13:21:31.156Z,99247.16
2022-10-22T13:24:03.163Z,99236.97
2022-10-22T13:26:37.940Z,99241.09
2022-10-22T13:29:14.730Z,99247.81
2022-10-22T13:31:48.624Z,99243.41
2022-10-22T13:34:21.109Z,99254.88
2022-10-22T13:36:49.998Z,99252.06
2022-10-22T13:39:21.995Z,99261.59
2022-10-22T13:41:51.266Z,99255.69
2022-10-22T13:44:20.057Z,99252.56
2022-10-22T13:46:49.530Z,99254.22
2022-10-22T13:49:22.837Z,99262.25
2022-10-22T13:51:52.974Z,99253.56
2022-10-22T13:54:25.395Z,99251.91
2022-10-22T13:56:53.995Z,99259.16
2022-10-22T13:59:23.872Z,99249.94
2022-10-22T14:01:54.849Z,99249.94
2022-10-22T14:04:23.298Z,99256.66
2022-10-22T14:06:51.760Z,99264.53
2022-10-22T14:09:21.016Z,99267.19
2022-10-22T14:11:50.801Z,99269.47
2022-10-22T14:14:19.199Z,99275.38
2022-10-22T14:16:47.725Z,99267.69
2022-10-22T14:19:19.092Z,99267.50
2022-10-22T14:21:49.243Z,99258.66
2022-10-22T14:24:17.847Z,99257.00
2022-10-22T14:26:46.356Z,99255.38
2022-10-22T14:29:16.091Z,99259.28
2022-10-22T14:31:45.497Z,99270.13
2022-10-22T14:34:16.015Z,99269.31
2022-10-22T14:36:44.693Z,99282.91
2022-10-22T14:39:13.502Z,99282.91
2022-10-22T14:41:42.461Z,99274.88
2022-10-22T14:44:14.349Z,99279.97
2022-10-22T14:46:46.748Z,99271.13
2022-10-22T14:49:15.165Z,99267.81
2022-10-22T14:51:43.754Z,99264.88
2022-10-22T14:54:12.213Z,99264.38
2022-10-22T14:56:40.638Z,99271.41
2022-10-22T14:59:09.408Z,99260.91
2022-10-22T15:01:38.895Z,99275.53
2022-10-22T15:04:08.929Z,99282.88
2022-10-22T15:06:37.632Z,99279.28
2022-10-22T15:09:06.053Z,99281.88
2022-10-22T15:11:34.458Z,99281.41
2022-10-22T15:14:02.821Z,99277.28
2022-10-22T15:16:31.727Z,99286.78
2022-10-22T15:19:01.303Z,99290.22
2022-10-22T15:21:31.145Z,99287.72
2022-10-22T15:24:00.806Z,99290.03
2022-10-22T15:26:29.458Z,99286.75
2022-10-22T15:28:58.124Z,99293.78
2022-10-22T15:31:47.394Z,99285.06
2022-10-22T15:34:20.184Z,99283.13
2022-10-22T15:36:50.707Z,99292.63
2022-10-22T15:39:19.480Z,99299.31
2022-10-22T15:41:49.110Z,99294.88
2022-10-22T15:44:20.245Z,99290.81
2022-10-22T15:49:23.543Z,99305.03
2022-10-22T15:51:53.538Z,99302.59
2022-10-22T15:54:25.520Z,99298.16
2022-10-22T15:56:54.109Z,99299.31
2022-10-22T15:59:22.923Z,99314.38
2022-10-22T16:01:52.176Z,99320.25
2022-10-22T16:04:21.650Z,99313.88
2022-10-22T16:06:54.272Z,99320.56
2022-10-22T16:09:25.649Z,99326.47
2022-10-22T16:11:55.852Z,99317.28
2022-10-22T16:14:24.750Z,99321.22
2022-10-22T16:16:55.566Z,99327.09
2022-10-22T16:19:25.597Z,99329.09
2022-10-22T16:21:59.463Z,99338.91
2022-10-22T16:24:27.849Z,99344.47
2022-10-22T16:26:56.208Z,99350.88
2022-10-22T16:29:25.439Z,99358.69
2022-10-22T16:31:54.050Z,99355.09
2022-10-22T16:34:22.823Z,99364.09
2022-10-22T16:36:53.714Z,99371.59
2022-10-22T16:39:24.033Z,99382.25
2022-10-22T16:41:52.886Z,99382.75
2022-10-22T16:44:22.048Z,99388.13
2022-10-22T16:46:50.702Z,99388.44
2022-10-22T16:49:19.098Z,99405.47
2022-10-22T16:51:48.499Z,99399.41
2022-10-22T16:54:18.385Z,99410.03
2022-10-22T16:56:48.698Z,99414.59
2022-10-22T16:59:18.308Z,99411.28
2022-10-22T17:01:47.654Z,99422.25
2022-10-22T17:04:17.883Z,99426.16
2022-10-22T17:06:47.214Z,99418.47
2022-10-22T17:09:17.374Z,99427.44
2022-10-22T17:11:48.369Z,99429.22
2022-10-22T17:14:18.036Z,99430.66
2022-10-22T17:16:54.035Z,99413.75
2022-10-22T17:19:25.068Z,99431.91
2022-10-22T17:21:55.103Z,99442.50
2022-10-22T17:24:24.592Z,99435.09
2022-10-22T17:26:58.645Z,99437.38
2022-10-22T17:29:28.723Z,99427.69
2022-10-22T17:31:58.370Z,99431.13
2022-10-22T17:34:30.592Z,99441.72
2022-10-22T17:37:00.694Z,99426.50
2022-10-22T17:39:29.967Z,99434.84
2022-10-22T17:42:03.500Z,99442.66
2022-10-22T17:44:34.894Z,99449.16
2022-10-22T17:47:06.234Z,99451.44
2022-10-22T17:49:35.794Z,99450.94
2022-10-22T17:52:08.314Z,99450.09
2022-10-22T17:54:41.654Z,99459.59
2022-10-22T17:57:13.393Z,99449.59
2022-10-22T17:59:43.533Z,99456.59
2022-10-22T18:02:18.506Z,99453.03
2022-10-22T18:04:52.530Z,99460.53
2022-10-22T18:07:22.282Z,99464.16
2022-10-22T18:09:52.133Z,99468.06
2022-10-22T18:12:23.831Z,99469.16
2022-10-22T18:14:53.258Z,99469.50
2022-10-22T18:17:23.434Z,99470.31
2022-10-22T18:19:56.331Z,99477.00
2022-10-22T18:22:26.581Z,99466.72
2022-10-22T18:24:56.546Z,99487.31
2022-10-22T18:27:29.323Z,99477.34
2022-10-22T18:29:59.425Z,99486.50
2022-10-22T18:32:29.677Z,99480.09
2022-10-22T18:34:59.653Z,99485.66
2022-10-22T18:37:30.336Z,99485.16
2022-10-22T18:40:00.151Z,99489.38
2022-10-22T18:42:40.244Z,99489.72
2022-10-22T18:45:12.428Z,99499.50
2022-10-22T18:47:43.316Z,99498.97
2022-10-22T18:50:14.529Z,99503.72
2022-10-22T18:52:44.316Z,99504.81
2022-10-22T18:55:16.884Z,99505.97
2022-10-22T18:57:52.010Z,99512.97
2022-10-22T19:00:22.343Z,99522.44
2022-10-22T19:02:52.277Z,99512.47
2022-10-22T19:05:23.473Z,99521.09
2022-10-22T19:07:53.067Z,99516.38
2022-10-22T19:10:22.211Z,99516.69
2022-10-22T19:12:54.779Z,99516.97
2022-10-22T19:15:24.680Z,99521.72
2022-10-22T19:17:53.900Z,99532.84
2022-10-22T19:20:24.712Z,99534.81
2022-10-22T19:22:58.002Z,99528.91
2022-10-22T19:25:27.797Z,99538.09
2022-10-22T19:27:58.943Z,99532.53
2022-10-22T19:30:29.110Z,99537.25
2022-10-22T19:32:58.309Z,99540.88
2022-10-22T19:35:27.972Z,99552.81
2022-10-22T19:37:58.071Z,99554.75
2022-10-22T19:40:28.578Z,99555.59
2022-10-22T19:42:58.777Z,99555.59
2022-10-22T19:45:30.226Z,99555.59
2022-10-22T19:48:02.510Z,99554.75
2022-10-22T19:50:32.203Z,99561.16
2022-10-22T19:53:02.028Z,99554.75
2022-10-22T19:55:31.697Z,99551.47
2022-10-22T19:58:04.829Z,99562.88
2022-10-22T20:00:35.055Z,99561.25
2022-10-22T20:03:04.306Z,99564.03
2022-10-22T20:05:33.874Z,99562.38
2022-10-22T20:08:03.675Z,99562.69
2022-10-22T20:10:33.252Z,99567.41
2022-10-22T20:13:03.513Z,99570.19
2022-10-22T20:15:34.781Z,99578.03
2022-10-22T20:18:03.391Z,99572.78
2022-10-22T20:20:33.098Z,99568.84
2022-10-22T20:23:02.118Z,99573.59
2022-10-22T20:25:31.399Z,99569.50
2022-10-22T20:28:00.025Z,99572.56
2022-10-22T20:30:30.840Z,99569.25
2022-10-22T20:33:05.729Z,99567.63
2022-10-22T20:35:34.583Z,99588.19
2022-10-22T20:38:03.403Z,99575.41
2022-10-22T20:40:33.761Z,99586.84
2022-10-22T20:43:10.514Z,99583.25
2022-10-22T20:45:44.467Z,99588.59
2022-10-22T20:48:16.195Z,99591.06
2022-10-22T20:50:45.252Z,99593.84
2022-10-22T20:53:16.946Z,99595.78
2022-10-22T20:55:46.111Z,99583.03
2022-10-22T20:58:14.845Z,99599.13
2022-10-22T21:00:45.797Z,99589.94
2022-10-22T21:03:15.871Z,99598.78
2022-10-22T21:05:44.356Z,99596.03
2022-10-22T21:08:17.492Z,99602.41
2022-10-22T21:10:49.296Z,99596.84
2022-10-22T21:13:19.573Z,99610.75
2022-10-22T21:15:49.430Z,99603.53
2022-10-22T21:18:17.922Z,99609.06
2022-10-22T21:20:46.310Z,99607.44
2022-10-22T21:23:14.687Z,99596.94
2022-10-22T21:25:43.987Z,99606.66
2022-10-22T21:28:12.733Z,99598.44
2022-10-22T21:30:46.622Z,99611.78
2022-10-22T21:33:16.664Z,99606.56
2022-10-22T21:35:52.952Z,99603.53
2022-10-22T21:38:22.288Z,99604.38
2022-10-22T21:40:51.002Z,99613.31
2022-10-22T21:43:19.932Z,99610.53
2022-10-22T21:45:48.480Z,99608.91
2022-10-22T21:48:18.246Z,99604.19
2022-10-22T21:50:46.741Z,99614.16
2022-10-22T21:53:15.140Z,99610.25
2022-10-22T21:55:43.527Z,99605.50
2022-10-22T21:58:11.912Z,99614.66
2022-10-22T22:00:40.285Z,99604.69
2022-10-22T22:03:09.147Z,99608.00
2022-10-22T22:05:39.478Z,99612.72
2022-10-22T22:08:08.117Z,99614.66
2022-10-22T22:10:36.514Z,99611.06
2022-10-22T22:13:05.019Z,99608.28
2022-10-22T22:15:34.881Z,99612.19
2022-10-22T22:18:03.293Z,99608.28
2022-10-22T22:20:31.776Z,99615.81
2022-10-22T22:23:01.496Z,99608.28
2022-10-22T22:25:30.326Z,99606.31
2022-10-22T22:27:58.714Z,99606.84
2022-10-22T22:30:27.179Z,99608.81
2022-10-22T22:32:55.547Z,99614.38
2022-10-22T22:35:23.877Z,99621.56
2022-10-22T22:37:52.703Z,99615.69
2022-10-22T22:40:22.608Z,99612.13
2022-10-22T22:42:51.017Z,99612.63
2022-10-22T22:45:19.438Z,99615.41
2022-10-22T22:47:47.796Z,99620.13
2022-10-22T22:50:16.322Z,99612.91
2022-10-22T22:52:44.741Z,99618.47
2022-10-22T22:55:13.280Z,99619.94
2022-10-22T22:57:43.058Z,99623.81
2022-10-22T23:00:14.095Z,99623.63
2022-10-22T23:02:42.684Z,99625.84
2022-10-22T23:05:11.486Z,99630.88
2022-10-22T23:07:39.855Z,99632.03
2022-10-22T23:10:09.418Z,99628.75
2022-10-22T23:12:37.787Z,99632.94
2022-10-22T23:15:08.915Z,99639.09
2022-10-22T23:17:37.323Z,99642.19
2022-10-22T23:20:07.581Z,99644.72
2022-10-22T23:22:36.012Z,99643.09
2022-10-22T23:25:04.642Z,99646.16
2022-10-22T23:27:33.027Z,99641.75
2022-10-22T23:30:01.425Z,99646.47
2022-10-22T23:32:31.285Z,99650.34
2022-10-22T23:34:59.755Z,99648.72
2022-10-22T23:37:28.179Z,99653.97
2022-10-22T23:39:56.866Z,99650.66
2022-10-22T23:42:25.270Z,99657.34
2022-10-22T23:44:53.696Z,99650.47
2022-10-22T23:47:22.177Z,99646.84
2022-10-22T23:49:52.001Z,99657.44
2022-10-22T23:52:20.429Z,99656.59
2022-10-22T23:54:50.160Z,99660.50
2022-10-22T23:57:18.626Z,99662.47
2022-10-22T23:59:47.003Z,99659.97
